createdAt,value
2023-05-05T00:01:03.153Z,98202.63
2023-05-05T00:03:30.018Z,98187.28
2023-05-05T00:05:57.468Z,98183.47
2023-05-05T00:08:26.733Z,98190.59
2023-05-05T00:10:53.681Z,98199.84
2023-05-05T00:13:21.690Z,98189.91
2023-05-05T00:15:50.370Z,98184.34
2023-05-05T00:18:18.060Z,98191.66
2023-05-05T00:20:46.872Z,98186.56
2023-05-05T00:23:14.410Z,98173.78
2023-05-05T00:25:41.153Z,98142.91
2023-05-05T00:28:07.950Z,98169.91
2023-05-05T00:30:34.771Z,98176.19
2023-05-05T00:33:01.937Z,98180.28
2023-05-05T00:35:28.677Z,98152.75
2023-05-05T00:37:57.641Z,98182.69
2023-05-05T00:40:25.247Z,98166.97
2023-05-05T00:42:52.731Z,98136.69
2023-05-05T00:45:20.259Z,98146.56
2023-05-05T00:47:52.766Z,98163.03
2023-05-05T00:50:22.717Z,98147.47
2023-05-05T00:52:49.852Z,98159.66
2023-05-05T00:55:16.720Z,98128.56
2023-05-05T00:57:44.468Z,98154.31
2023-05-05T01:00:12.012Z,98151.72
2023-05-05T01:02:40.201Z,98139.13
2023-05-05T01:05:09.035Z,98161.75
2023-05-05T01:07:53.970Z,98157.16
2023-05-05T01:10:50.491Z,98142.03
2023-05-05T01:13:37.420Z,98154.97
2023-05-05T01:16:16.973Z,98142.94
2023-05-05T01:19:05.392Z,98152.34
2023-05-05T01:21:49.853Z,98133.19
2023-05-05T01:24:39.312Z,98133.66
2023-05-05T01:27:27.771Z,98143.78
2023-05-05T01:30:08.907Z,98154.28
2023-05-05T01:32:43.813Z,98142.28
2023-05-05T01:35:18.502Z,98139.81
2023-05-05T01:38:03.423Z,98146.34
2023-05-05T01:40:39.069Z,98112.56
2023-05-05T01:43:08.682Z,98130.66
2023-05-05T01:45:40.005Z,98144.19
2023-05-05T01:48:08.241Z,98142.50
2023-05-05T01:50:37.039Z,98130.94
2023-05-05T01:53:04.978Z,98133.25
2023-05-05T01:55:36.693Z,98112.84
2023-05-05T01:58:05.817Z,98082.34
2023-05-05T02:00:35.854Z,98127.03
2023-05-05T02:03:05.476Z,98132.34
2023-05-05T02:05:38.813Z,98111.16
2023-05-05T02:08:06.612Z,98118.66
2023-05-05T02:10:34.546Z,98123.25
2023-05-05T02:13:04.954Z,98116.56
2023-05-05T02:15:33.742Z,98099.56
2023-05-05T02:18:04.684Z,98119.56
2023-05-05T02:20:35.239Z,98109.75
2023-05-05T02:23:05.554Z,98102.16
2023-05-05T02:25:53.184Z,98104.25
2023-05-05T02:28:36.438Z,98115.81
2023-05-05T02:31:08.628Z,98091.69
2023-05-05T02:33:36.716Z,98128.00
2023-05-05T02:36:19.209Z,98087.47
2023-05-05T02:38:48.554Z,98124.19
2023-05-05T02:41:18.774Z,98077.72
2023-05-05T02:43:48.592Z,98107.53
2023-05-05T02:46:15.812Z,98107.28
2023-05-05T02:48:42.458Z,98086.56
2023-05-05T02:51:09.045Z,98108.22
2023-05-05T02:53:39.101Z,98130.63
2023-05-05T02:56:14.861Z,98079.66
2023-05-05T02:59:19.529Z,98087.34
2023-05-05T03:02:06.581Z,98104.59
2023-05-05T03:04:41.871Z,98096.59
2023-05-05T03:07:37.966Z,98110.50
2023-05-05T03:10:13.947Z,98115.56
2023-05-05T03:12:54.643Z,98071.66
2023-05-05T03:15:30.641Z,98110.41
2023-05-05T03:17:59.100Z,98086.75
2023-05-05T03:20:26.363Z,98098.13
2023-05-05T03:22:53.223Z,98092.69
2023-05-05T03:25:19.866Z,98059.31
2023-05-05T03:27:46.512Z,98089.50
2023-05-05T03:30:13.311Z,98076.00
2023-05-05T03:32:39.850Z,98065.00
2023-05-05T03:35:09.484Z,98069.66
2023-05-05T03:37:39.661Z,98065.25
2023-05-05T03:40:09.904Z,98067.09
2023-05-05T03:42:37.896Z,98029.00
2023-05-05T03:45:04.822Z,98049.28
2023-05-05T03:47:31.546Z,98073.53
2023-05-05T03:50:01.111Z,98065.63
2023-05-05T03:52:27.673Z,98045.00
2023-05-05T03:54:54.292Z,98077.47
2023-05-05T03:57:20.923Z,98040.03
2023-05-05T03:59:47.427Z,98060.78
2023-05-05T04:02:13.967Z,98052.41
2023-05-05T04:04:40.598Z,98058.72
2023-05-05T04:07:09.381Z,98033.31
2023-05-05T04:09:36.023Z,98013.03
2023-05-05T04:12:03.136Z,98032.41
2023-05-05T04:14:29.726Z,98041.94
2023-05-05T04:16:56.234Z,98048.56
2023-05-05T04:19:22.723Z,98055.66
2023-05-05T04:21:50.407Z,98026.72
2023-05-05T04:24:16.991Z,98030.38
2023-05-05T04:26:43.552Z,98032.66
2023-05-05T04:29:13.280Z,98032.22
2023-05-05T04:31:43.204Z,98050.66
2023-05-05T04:34:12.931Z,98027.56
2023-05-05T04:36:42.806Z,98047.00
2023-05-05T04:39:12.186Z,98022.41
2023-05-05T04:41:40.973Z,98019.28
2023-05-05T04:44:07.472Z,98010.47
2023-05-05T04:46:34.973Z,98024.31
2023-05-05T04:49:03.378Z,98034.03
2023-05-05T04:51:29.935Z,98062.44
2023-05-05T04:53:56.478Z,98026.97
2023-05-05T04:56:23.071Z,98043.22
2023-05-05T04:58:50.266Z,98044.97
2023-05-05T05:01:16.868Z,98056.53
2023-05-05T05:03:43.569Z,98050.84
2023-05-05T05:06:12.389Z,98055.88
2023-05-05T05:08:38.949Z,98030.47
2023-05-05T05:11:05.503Z,98041.22
2023-05-05T05:13:32.452Z,98046.53
2023-05-05T05:15:59.043Z,98034.22
2023-05-05T05:18:25.648Z,98057.00
2023-05-05T05:20:52.260Z,98056.63
2023-05-05T05:23:18.755Z,98037.84
2023-05-05T05:25:46.002Z,98051.75
2023-05-05T05:28:15.902Z,98064.84
2023-05-05T05:30:46.207Z,98058.94
2023-05-05T05:33:15.655Z,98061.84
2023-05-05T05:35:46.055Z,98035.84
2023-05-05T05:38:17.604Z,98064.19
2023-05-05T05:40:49.172Z,98039.84
2023-05-05T05:43:15.799Z,98051.03
2023-05-05T05:45:45.713Z,98058.06
2023-05-05T05:48:13.460Z,98073.34
2023-05-05T05:50:40.023Z,98073.66
2023-05-05T05:53:06.800Z,98065.03
2023-05-05T05:55:33.363Z,98050.19
2023-05-05T05:58:00.220Z,98055.06
2023-05-05T06:00:27.144Z,98064.03
2023-05-05T06:02:53.701Z,98058.75
2023-05-05T06:05:20.281Z,98068.13
2023-05-05T06:07:46.772Z,98065.75
2023-05-05T06:10:27.485Z,98075.50
2023-05-05T06:12:55.322Z,98071.91
2023-05-05T06:15:21.940Z,98065.56
2023-05-05T06:17:48.618Z,98056.03
2023-05-05T06:20:15.340Z,98091.22
2023-05-05T06:22:44.970Z,98100.69
2023-05-05T06:25:14.471Z,98122.47
2023-05-05T06:27:43.235Z,98117.41
2023-05-05T06:30:12.416Z,98129.44
2023-05-05T06:32:39.318Z,98103.19
2023-05-05T06:35:07.239Z,98136.25
2023-05-05T06:37:34.021Z,98127.19
2023-05-05T06:40:00.971Z,98136.13
2023-05-05T06:42:27.502Z,98148.91
2023-05-05T06:44:54.006Z,98143.66
2023-05-05T06:47:20.728Z,98173.25
2023-05-05T06:49:47.247Z,98183.97
2023-05-05T06:52:13.852Z,98193.50
2023-05-05T06:54:41.625Z,98185.25
2023-05-05T06:57:08.061Z,98162.88
2023-05-05T06:59:34.541Z,98160.97
2023-05-05T07:02:01.053Z,98167.31
2023-05-05T07:04:27.590Z,98140.84
2023-05-05T07:06:55.440Z,98172.78
2023-05-05T07:09:22.308Z,98155.59
2023-05-05T07:11:49.209Z,98161.47
2023-05-05T07:14:16.090Z,98140.38
2023-05-05T07:16:46.636Z,98140.03
2023-05-05T07:19:17.716Z,98142.25
2023-05-05T07:24:15.272Z,98154.28
2023-05-05T07:26:44.651Z,98137.34
2023-05-05T07:29:11.692Z,98163.09
2023-05-05T07:31:38.750Z,98145.66
2023-05-05T07:34:05.622Z,98147.56
2023-05-05T07:36:32.946Z,98150.69
2023-05-05T07:39:00.620Z,98163.66
2023-05-05T07:41:27.609Z,98165.50
2023-05-05T07:43:54.415Z,98166.56
2023-05-05T07:46:21.247Z,98180.13
2023-05-05T07:48:48.185Z,98159.53
2023-05-05T07:51:18.678Z,98177.84
2023-05-05T07:53:48.120Z,98180.03
2023-05-05T07:56:18.148Z,98141.34
2023-05-05T07:58:48.519Z,98190.31
2023-05-05T08:01:18.366Z,98178.78
2023-05-05T08:03:47.534Z,98162.09
2023-05-05T08:06:22.159Z,98184.97
2023-05-05T08:08:50.417Z,98179.38
2023-05-05T08:11:20.557Z,98175.50
2023-05-05T08:13:48.624Z,98182.31
2023-05-05T08:16:17.215Z,98174.28
2023-05-05T08:18:43.943Z,98172.22
2023-05-05T08:21:11.236Z,98169.13
2023-05-05T08:23:39.053Z,98186.34
2023-05-05T08:26:09.014Z,98192.22
2023-05-05T08:28:39.497Z,98204.50
2023-05-05T08:31:06.959Z,98212.44
2023-05-05T08:33:33.639Z,98204.59
2023-05-05T08:36:00.493Z,98225.44
2023-05-05T08:38:27.274Z,98266.66
2023-05-05T08:40:53.792Z,98277.13
2023-05-05T08:43:22.976Z,98283.59
2023-05-05T08:45:51.821Z,98256.47
2023-05-05T08:48:22.819Z,98183.22
2023-05-05T08:51:00.820Z,98205.38
2023-05-05T08:53:34.940Z,98175.03
2023-05-05T08:56:04.477Z,98136.53
2023-05-05T08:58:31.634Z,98190.88
2023-05-05T09:00:58.724Z,98200.69
2023-05-05T09:03:27.307Z,98199.41
2023-05-05T09:05:54.488Z,98202.00
2023-05-05T09:08:21.576Z,98184.50
2023-05-05T09:10:51.687Z,98206.47
2023-05-05T09:13:19.299Z,98187.56
2023-05-05T09:15:50.601Z,98191.44
2023-05-05T09:18:20.207Z,98217.81
2023-05-05T09:20:50.185Z,98232.03
2023-05-05T09:23:21.462Z,98233.47
2023-05-05T09:26:03.763Z,98232.47
2023-05-05T09:28:30.516Z,98213.69
2023-05-05T09:31:19.481Z,98233.66
2023-05-05T09:33:48.593Z,98224.06
2023-05-05T09:36:15.132Z,98244.09
2023-05-05T09:38:41.615Z,98264.81
2023-05-05T09:41:08.077Z,98266.94
2023-05-05T09:43:54.795Z,98268.97
2023-05-05T09:46:24.180Z,98270.69
2023-05-05T09:48:50.822Z,98301.66
2023-05-05T09:51:29.355Z,98329.72
2023-05-05T09:53:55.934Z,98328.38
2023-05-05T09:56:37.764Z,98350.88
2023-05-05T09:59:11.918Z,98367.13
2023-05-05T10:01:43.682Z,98328.63
2023-05-05T10:04:26.828Z,98229.50
2023-05-05T10:06:55.872Z,98193.19
2023-05-05T10:09:26.244Z,98209.47
2023-05-05T10:11:56.233Z,98198.44
2023-05-05T10:14:24.197Z,98216.91
2023-05-05T10:16:53.142Z,98212.38
2023-05-05T10:19:21.734Z,98211.66
2023-05-05T10:21:53.447Z,98202.38
2023-05-05T10:24:39.314Z,98215.75
2023-05-05T10:27:26.082Z,98228.84
2023-05-05T10:30:02.189Z,98242.91
2023-05-05T10:35:26.393Z,98237.81
2023-05-05T10:37:54.505Z,98174.53
2023-05-05T10:40:22.791Z,98181.78
2023-05-05T10:42:54.522Z,98172.69
2023-05-05T10:45:21.368Z,98241.31
2023-05-05T10:47:54.041Z,98256.53
2023-05-05T10:50:50.083Z,98267.69
2023-05-05T10:53:28.957Z,98262.94
2023-05-05T10:56:16.037Z,98257.75
2023-05-05T10:58:58.319Z,98258.44
2023-05-05T11:01:33.626Z,98275.31
2023-05-05T11:04:36.106Z,98290.91
2023-05-05T11:07:09.805Z,98309.84
2023-05-05T11:09:58.535Z,98328.09
2023-05-05T11:12:25.502Z,98307.72
2023-05-05T11:15:26.438Z,98259.06
2023-05-05T11:18:05.795Z,98248.38
2023-05-05T11:20:37.193Z,98263.06
2023-05-05T11:23:03.722Z,98251.16
2023-05-05T11:25:36.955Z,98255.41
2023-05-05T11:28:11.762Z,98224.00
2023-05-05T11:30:57.571Z,98220.72
2023-05-05T11:33:25.727Z,98209.38
2023-05-05T11:36:06.059Z,98186.31
2023-05-05T11:38:39.391Z,98208.16
2023-05-05T11:41:25.812Z,98202.63
2023-05-05T11:44:29.437Z,98220.97
2023-05-05T11:47:01.994Z,98216.00
2023-05-05T11:49:30.529Z,98190.47
2023-05-05T11:52:07.156Z,98222.81
2023-05-05T11:54:42.090Z,98208.25
2023-05-05T11:57:09.190Z,98218.69
2023-05-05T11:59:37.468Z,98203.75
2023-05-05T12:02:04.732Z,98190.59
2023-05-05T12:04:32.391Z,98193.31
2023-05-05T12:07:00.047Z,98214.44
2023-05-05T12:09:27.423Z,98196.13
2023-05-05T12:11:56.642Z,98203.66
2023-05-05T12:14:26.344Z,98182.66
2023-05-05T12:16:57.104Z,98200.66
2023-05-05T12:19:30.366Z,98182.44
2023-05-05T12:21:57.690Z,98177.44
2023-05-05T12:24:25.821Z,98182.75
2023-05-05T12:26:55.006Z,98184.22
2023-05-05T12:29:29.438Z,98180.19
2023-05-05T12:31:57.944Z,98207.34
2023-05-05T12:34:27.400Z,98200.88
2023-05-05T12:36:57.335Z,98168.31
2023-05-05T12:39:34.019Z,98173.53
2023-05-05T12:42:07.109Z,98171.53
2023-05-05T12:44:40.785Z,98168.72
2023-05-05T12:47:07.484Z,98156.09
2023-05-05T12:49:51.347Z,98180.06
2023-05-05T12:52:18.531Z,98178.00
2023-05-05T12:54:55.995Z,98150.94
2023-05-05T12:57:23.316Z,98164.06
2023-05-05T12:59:51.052Z,98171.34
2023-05-05T13:02:17.710Z,98167.97
2023-05-05T13:04:56.984Z,98158.84
2023-05-05T13:07:24.074Z,98174.53
2023-05-05T13:09:51.018Z,98164.66
2023-05-05T13:12:18.428Z,98146.56
2023-05-05T13:14:45.517Z,98163.09
2023-05-05T13:17:13.044Z,98140.91
2023-05-05T13:19:46.114Z,98127.94
2023-05-05T13:22:13.604Z,98141.94
2023-05-05T13:24:50.850Z,98132.31
2023-05-05T13:27:19.963Z,98144.84
2023-05-05T13:29:46.758Z,98120.28
2023-05-05T13:32:13.362Z,98118.78
2023-05-05T13:34:39.999Z,98120.03
2023-05-05T13:37:06.724Z,98111.13
2023-05-05T13:39:33.401Z,98090.19
2023-05-05T13:41:59.915Z,98119.22
2023-05-05T13:44:28.910Z,98112.38
2023-05-05T13:46:55.501Z,98104.75
2023-05-05T13:49:22.114Z,98126.94
2023-05-05T13:51:48.746Z,98091.41
2023-05-05T13:54:15.339Z,98118.34
2023-05-05T13:56:41.940Z,98118.34
2023-05-05T13:59:09.288Z,98121.50
2023-05-05T14:01:36.009Z,98097.31
2023-05-05T14:04:05.129Z,98109.84
2023-05-05T14:06:32.714Z,98084.81
2023-05-05T14:09:05.879Z,98095.28
2023-05-05T14:11:32.907Z,98102.53
2023-05-05T14:14:03.155Z,98069.75
2023-05-05T14:16:30.707Z,98064.22
2023-05-05T14:18:57.326Z,98056.22
2023-05-05T14:21:23.940Z,98073.53
2023-05-05T14:23:50.719Z,98075.78
2023-05-05T14:26:17.752Z,98070.31
2023-05-05T14:28:44.648Z,98066.53
2023-05-05T14:31:11.351Z,98070.88
2023-05-05T14:33:38.029Z,98063.00
2023-05-05T14:36:04.843Z,98056.13
2023-05-05T14:38:31.382Z,98069.28
2023-05-05T14:41:03.913Z,98057.53
2023-05-05T14:43:32.392Z,98042.63
2023-05-05T14:46:06.956Z,98066.38
2023-05-05T14:48:34.704Z,98052.38
2023-05-05T14:51:01.360Z,98037.34
2023-05-05T14:53:29.949Z,98055.97
2023-05-05T14:55:56.769Z,98045.31
2023-05-05T14:58:24.752Z,98027.34
2023-05-05T15:00:52.989Z,98034.97
2023-05-05T15:03:19.617Z,98027.66
2023-05-05T15:05:46.103Z,98024.94
2023-05-05T15:08:14.449Z,98023.56
2023-05-05T15:10:41.418Z,98032.50
2023-05-05T15:13:08.027Z,98029.78
2023-05-05T15:15:34.505Z,98022.66
2023-05-05T15:18:04.378Z,98024.91
2023-05-05T15:20:34.371Z,98018.94
2023-05-05T15:23:04.467Z,98026.78
2023-05-05T15:25:31.912Z,98023.50
2023-05-05T15:28:04.131Z,98015.44
2023-05-05T15:30:35.491Z,98016.22
2023-05-05T15:33:02.325Z,98012.16
2023-05-05T15:35:33.849Z,98007.81
2023-05-05T15:38:03.409Z,98018.69
2023-05-05T15:40:32.308Z,98013.53
2023-05-05T15:42:58.832Z,97988.53
2023-05-05T15:45:25.502Z,97996.91
2023-05-05T15:47:53.869Z,98015.84
2023-05-05T15:50:21.130Z,98019.53
2023-05-05T15:52:49.913Z,98007.69
2023-05-05T15:55:17.432Z,98015.06
2023-05-05T15:57:44.216Z,98012.63
2023-05-05T16:00:11.151Z,98016.41
2023-05-05T16:02:37.739Z,98009.53
2023-05-05T16:05:04.881Z,98015.41
2023-05-05T16:07:34.032Z,98003.38
2023-05-05T16:10:02.135Z,98002.06
2023-05-05T16:12:28.759Z,98016.81
2023-05-05T16:14:55.763Z,98021.03
2023-05-05T16:17:22.814Z,98017.16
2023-05-05T16:19:49.397Z,98012.97
2023-05-05T16:22:15.989Z,98006.75
2023-05-05T16:24:44.365Z,98009.31
2023-05-05T16:27:11.204Z,98014.41
2023-05-05T16:29:37.711Z,98011.66
2023-05-05T16:32:06.629Z,98011.44
2023-05-05T16:34:33.187Z,98006.03
2023-05-05T16:37:01.985Z,98007.63
2023-05-05T16:39:28.510Z,98003.97
2023-05-05T16:41:55.066Z,97989.25
2023-05-05T16:44:21.714Z,97979.06
2023-05-05T16:46:48.245Z,98004.25
2023-05-05T16:49:14.813Z,97980.19
2023-05-05T16:51:41.396Z,97984.00
2023-05-05T16:54:07.903Z,97994.84
2023-05-05T16:56:35.127Z,98002.00
2023-05-05T16:59:04.384Z,97974.06
2023-05-05T17:01:34.978Z,98001.47
2023-05-05T17:04:08.008Z,97975.69
2023-05-05T17:06:34.602Z,98003.78
2023-05-05T17:09:06.242Z,97997.06
2023-05-05T17:11:32.918Z,97974.28
2023-05-05T17:14:03.475Z,97994.66
2023-05-05T17:16:32.359Z,97986.22
2023-05-05T17:18:58.911Z,98004.94
2023-05-05T17:21:25.752Z,97982.09
2023-05-05T17:23:52.323Z,98006.00
2023-05-05T17:26:18.844Z,98002.00
2023-05-05T17:28:45.439Z,98004.03
2023-05-05T17:31:12.655Z,97987.19
2023-05-05T17:33:39.329Z,97988.09
2023-05-05T17:36:06.973Z,97965.53
2023-05-05T17:38:33.858Z,97985.44
2023-05-05T17:41:03.714Z,97991.16
2023-05-05T17:43:32.981Z,97983.56
2023-05-05T17:46:03.391Z,97983.31
2023-05-05T17:48:35.793Z,98003.13
2023-05-05T17:51:05.584Z,97988.69
2023-05-05T17:53:33.766Z,97994.91
2023-05-05T17:56:02.785Z,98006.38
2023-05-05T17:58:36.633Z,97991.50
2023-05-05T18:01:06.657Z,97981.34
2023-05-05T18:03:37.279Z,98000.44
2023-05-05T18:06:05.917Z,97989.00
2023-05-05T18:08:36.034Z,97997.97
2023-05-05T18:11:08.537Z,98013.22
2023-05-05T18:13:35.669Z,98001.00
2023-05-05T18:16:05.600Z,98015.84
2023-05-05T18:18:35.505Z,97978.97
2023-05-05T18:21:05.261Z,98004.66
2023-05-05T18:23:36.235Z,97979.38
2023-05-05T18:26:05.737Z,98012.28
2023-05-05T18:28:37.769Z,98001.16
2023-05-05T20:11:48.963Z,98067.09
2023-05-05T20:14:41.226Z,98085.63
2023-05-05T20:17:19.901Z,98084.59
2023-05-05T20:19:49.575Z,98077.38
2023-05-05T20:22:21.006Z,98078.19
2023-05-05T20:27:22.975Z,98119.50
2023-05-05T20:29:49.801Z,98098.28
2023-05-05T20:41:09.237Z,98084.63
2023-05-05T20:44:09.410Z,98112.22
2023-05-05T20:47:37.734Z,98120.06
2023-05-05T21:14:45.797Z,98087.16
2023-05-05T21:17:16.604Z,98086.00
2023-05-05T21:19:43.478Z,98070.72
2023-05-05T21:22:23.229Z,98077.09
2023-05-05T21:24:50.086Z,98092.28
2023-05-05T21:27:19.971Z,98077.44
2023-05-05T21:29:51.086Z,98064.69
2023-05-05T21:32:17.973Z,98069.09
2023-05-05T21:34:51.248Z,98121.84
2023-05-05T21:37:20.185Z,98072.50
2023-05-05T21:39:46.872Z,98065.13
2023-05-05T21:42:13.562Z,98059.56
2023-05-05T22:18:55.792Z,98084.38
2023-05-05T22:41:26.207Z,98042.94
2023-05-05T22:43:54.026Z,98076.13
2023-05-05T22:46:21.038Z,98022.63
2023-05-05T22:48:48.129Z,98012.41
2023-05-05T22:51:14.933Z,98043.97
2023-05-05T22:53:41.966Z,98015.25
2023-05-05T22:56:08.665Z,98055.69
2023-05-05T22:58:38.402Z,98043.13
2023-05-05T23:01:07.357Z,98015.25
2023-05-05T23:03:34.188Z,98027.13
2023-05-05T23:06:01.039Z,98017.22
2023-05-05T23:08:27.686Z,98012.56
2023-05-05T23:10:54.423Z,98040.34
2023-05-05T23:13:21.161Z,98031.63
2023-05-05T23:15:47.812Z,98064.31
2023-05-05T23:18:14.447Z,98003.25
2023-05-05T23:20:41.297Z,98018.47
2023-05-05T23:23:10.980Z,98027.75
2023-05-05T23:25:40.904Z,98033.25
2023-05-05T23:28:10.148Z,98024.53
2023-05-05T23:30:36.975Z,98035.41
2023-05-05T23:33:04.583Z,98020.75
2023-05-05T23:35:31.214Z,98018.44
2023-05-05T23:37:57.857Z,98001.41
2023-05-05T23:40:24.429Z,98035.69
2023-05-05T23:42:51.087Z,98004.78
2023-05-05T23:45:19.342Z,97990.38
2023-05-05T23:47:46.286Z,97993.41
2023-05-05T23:50:12.930Z,98026.81
2023-05-05T23:52:42.677Z,98032.50
2023-05-05T23:55:10.824Z,98019.66
2023-05-05T23:57:37.780Z,97993.41
